sensor_id;sensor_type;location;lat;lon;timestamp;pressure;altitude;pressure_sealevel;temperature;humidity
68489;BME280;55481;48.764;8.936;2023-02-13T00:00:47;98870;;;-0.9;78.5
68489;BME280;55481;48.764;8.936;2023-02-13T00:03:18;98870;;;-0.9;78
68489;BME280;55481;48.764;8.936;2023-02-13T00:05:48;98870;;;-1;78.5
68489;BME280;55481;48.764;8.936;2023-02-13T00:08:19;98870;;;-1;78.5
68489;BME280;55481;48.764;8.936;2023-02-13T00:10:50;98860;;;-1;78.5
68489;BME280;55481;48.764;8.936;2023-02-13T00:13:20;98860;;;-1;78.5
68489;BME280;55481;48.764;8.936;2023-02-13T00:15:55;98860;;;-0.9;78.5
68489;BME280;55481;48.764;8.936;2023-02-13T00:18:22;98860;;;-1;78.5
68489;BME280;55481;48.764;8.936;2023-02-13T00:21:07;98860;;;-1;78.5
68489;BME280;55481;48.764;8.936;2023-02-13T00:23:37;98860;;;-1;78.5
68489;BME280;55481;48.764;8.936;2023-02-13T00:26:07;98860;;;-1;78.5
68489;BME280;55481;48.764;8.936;2023-02-13T00:31:05;98860;;;-1.2;78.5
68489;BME280;55481;48.764;8.936;2023-02-13T00:33:32;98860;;;-1.1;78.5
68489;BME280;55481;48.764;8.936;2023-02-13T00:38:34;98860;;;-1.3;78.5
68489;BME280;55481;48.764;8.936;2023-02-13T00:43:41;98860;;;-1.5;79
68489;BME280;55481;48.764;8.936;2023-02-13T00:46:11;98860;;;-1.5;79
68489;BME280;55481;48.764;8.936;2023-02-13T00:48:35;98860;;;-1.5;79
68489;BME280;55481;48.764;8.936;2023-02-13T00:51:12;98860;;;-1.6;79
68489;BME280;55481;48.764;8.936;2023-02-13T00:53:43;98860;;;-1.7;79
68489;BME280;55481;48.764;8.936;2023-02-13T00:56:08;98860;;;-1.6;79
68489;BME280;55481;48.764;8.936;2023-02-13T01:01:02;98860;;;-1.6;79
68489;BME280;55481;48.764;8.936;2023-02-13T01:03:33;98870;;;-1.6;79
68489;BME280;55481;48.764;8.936;2023-02-13T01:08:37;98860;;;-1.6;79
68489;BME280;55481;48.764;8.936;2023-02-13T01:11:05;98860;;;-1.6;79
68489;BME280;55481;48.764;8.936;2023-02-13T01:13:36;98860;;;-1.6;78.5
68489;BME280;55481;48.764;8.936;2023-02-13T01:23:39;98850;;;-1.6;78.5
68489;BME280;55481;48.764;8.936;2023-02-13T01:26:12;98850;;;-1.7;79
68489;BME280;55481;48.764;8.936;2023-02-13T01:28:54;98850;;;-1.7;79
68489;BME280;55481;48.764;8.936;2023-02-13T01:31:25;98850;;;-1.7;79
68489;BME280;55481;48.764;8.936;2023-02-13T01:36:18;98840;;;-1.5;78
68489;BME280;55481;48.764;8.936;2023-02-13T01:38:51;98840;;;-1.5;78.5
68489;BME280;55481;48.764;8.936;2023-02-13T01:41:22;98840;;;-1.6;78.5
68489;BME280;55481;48.764;8.936;2023-02-13T01:43:56;98840;;;-1.5;78.5
68489;BME280;55481;48.764;8.936;2023-02-13T01:48:47;98840;;;-1.6;78.5
68489;BME280;55481;48.764;8.936;2023-02-13T01:51:19;98840;;;-1.6;78.5
68489;BME280;55481;48.764;8.936;2023-02-13T01:53:50;98840;;;-1.5;78.5
68489;BME280;55481;48.764;8.936;2023-02-13T01:56:21;98840;;;-1.5;78.5
68489;BME280;55481;48.764;8.936;2023-02-13T01:58:50;98840;;;-1.5;78
68489;BME280;55481;48.764;8.936;2023-02-13T02:01:21;98840;;;-1.6;78.5
68489;BME280;55481;48.764;8.936;2023-02-13T02:03:53;98840;;;-1.7;78.5
68489;BME280;55481;48.764;8.936;2023-02-13T02:06:24;98840;;;-1.7;79
68489;BME280;55481;48.764;8.936;2023-02-13T02:08:53;98850;;;-1.8;79
68489;BME280;55481;48.764;8.936;2023-02-13T02:16:25;98850;;;-1.9;79
68489;BME280;55481;48.764;8.936;2023-02-13T02:18:56;98850;;;-2;79
68489;BME280;55481;48.764;8.936;2023-02-13T02:21:41;98850;;;-2;79
68489;BME280;55481;48.764;8.936;2023-02-13T02:24:09;98850;;;-2;79
68489;BME280;55481;48.764;8.936;2023-02-13T02:26:41;98850;;;-1.9;78.5
68489;BME280;55481;48.764;8.936;2023-02-13T02:29:03;98850;;;-1.9;78.5
68489;BME280;55481;48.764;8.936;2023-02-13T02:32:00;98850;;;-2.1;79
68489;BME280;55481;48.764;8.936;2023-02-13T02:34:19;98850;;;-2.2;79
68489;BME280;55481;48.764;8.936;2023-02-13T02:36:38;98850;;;-2.2;79.5
68489;BME280;55481;48.764;8.936;2023-02-13T02:44:07;98830;;;-2;79
68489;BME280;55481;48.764;8.936;2023-02-13T02:49:31;98830;;;-2;79
68489;BME280;55481;48.764;8.936;2023-02-13T02:51:53;98830;;;-1.9;78.5
68489;BME280;55481;48.764;8.936;2023-02-13T02:54:21;98830;;;-1.9;78
68489;BME280;55481;48.764;8.936;2023-02-13T02:56:48;98830;;;-1.9;78.5
68489;BME280;55481;48.764;8.936;2023-02-13T02:59:18;98840;;;-1.9;78.5
68489;BME280;55481;48.764;8.936;2023-02-13T03:04:14;98850;;;-2.2;79
68489;BME280;55481;48.764;8.936;2023-02-13T03:06:48;98840;;;-2.1;79
68489;BME280;55481;48.764;8.936;2023-02-13T03:09:24;98840;;;-2.1;79
68489;BME280;55481;48.764;8.936;2023-02-13T03:17:07;98850;;;-2.1;79
68489;BME280;55481;48.764;8.936;2023-02-13T03:19:57;98850;;;-2.1;79
68489;BME280;55481;48.764;8.936;2023-02-13T03:24:24;98850;;;-2.2;79
68489;BME280;55481;48.764;8.936;2023-02-13T03:29:25;98850;;;-2.3;79.5
68489;BME280;55481;48.764;8.936;2023-02-13T03:36:46;98850;;;-2.1;78.5
68489;BME280;55481;48.764;8.936;2023-02-13T03:39:18;98850;;;-2.1;78.5
68489;BME280;55481;48.764;8.936;2023-02-13T03:41:49;98850;;;-2.2;79
68489;BME280;55481;48.764;8.936;2023-02-13T03:44:21;98850;;;-2.2;79
68489;BME280;55481;48.764;8.936;2023-02-13T03:46:49;98840;;;-2.1;79
68489;BME280;55481;48.764;8.936;2023-02-13T03:49:21;98850;;;-2;78.5
68489;BME280;55481;48.764;8.936;2023-02-13T03:51:52;98850;;;-2;78
68489;BME280;55481;48.764;8.936;2023-02-13T03:54:24;98860;;;-1.9;78
68489;BME280;55481;48.764;8.936;2023-02-13T03:56:51;98860;;;-2;78
68489;BME280;55481;48.764;8.936;2023-02-13T04:04:42;98860;;;-2.2;79
68489;BME280;55481;48.764;8.936;2023-02-13T04:09:32;98870;;;-2.1;78.5
68489;BME280;55481;48.764;8.936;2023-02-13T04:12:08;98870;;;-2.1;78.5
68489;BME280;55481;48.764;8.936;2023-02-13T04:14:49;98870;;;-2.1;78.5
68489;BME280;55481;48.764;8.936;2023-02-13T04:17:02;98880;;;-2.1;78.5
68489;BME280;55481;48.764;8.936;2023-02-13T04:19:29;98880;;;-2.2;78.5
68489;BME280;55481;48.764;8.936;2023-02-13T04:22:00;98880;;;-2.3;79
68489;BME280;55481;48.764;8.936;2023-02-13T04:24:30;98880;;;-2.3;79
68489;BME280;55481;48.764;8.936;2023-02-13T04:27:03;98880;;;-2.3;79
68489;BME280;55481;48.764;8.936;2023-02-13T04:34:33;98880;;;-2.1;78.5
68489;BME280;55481;48.764;8.936;2023-02-13T04:39:41;98880;;;-2.3;79
68489;BME280;55481;48.764;8.936;2023-02-13T04:44:42;98880;;;-2.4;79
68489;BME280;55481;48.764;8.936;2023-02-13T04:49:37;98880;;;-2.4;79
68489;BME280;55481;48.764;8.936;2023-02-13T04:52:08;98880;;;-2.4;79
68489;BME280;55481;48.764;8.936;2023-02-13T05:02:11;98880;;;-2.3;78.5
68489;BME280;55481;48.764;8.936;2023-02-13T05:04:44;98880;;;-2.3;79
68489;BME280;55481;48.764;8.936;2023-02-13T05:07:13;98880;;;-2.4;79
68489;BME280;55481;48.764;8.936;2023-02-13T05:09:57;98880;;;-2.3;78.5
68489;BME280;55481;48.764;8.936;2023-02-13T05:12:27;98880;;;-2.2;78.5
68489;BME280;55481;48.764;8.936;2023-02-13T05:17:21;98870;;;-2.2;78.5
68489;BME280;55481;48.764;8.936;2023-02-13T05:19:52;98880;;;-2.2;78.5
68489;BME280;55481;48.764;8.936;2023-02-13T05:22:23;98880;;;-2.4;78.5
68489;BME280;55481;48.764;8.936;2023-02-13T05:25:01;98880;;;-2.4;79
68489;BME280;55481;48.764;8.936;2023-02-13T05:30:09;98880;;;-2.3;78.5
68489;BME280;55481;48.764;8.936;2023-02-13T05:32:47;98880;;;-2.3;78.5
68489;BME280;55481;48.764;8.936;2023-02-13T05:37:27;98880;;;-2.3;78.5
68489;BME280;55481;48.764;8.936;2023-02-13T05:39:59;98880;;;-2.2;78.5
68489;BME280;55481;48.764;8.936;2023-02-13T05:44:52;98880;;;-2.3;78.5
68489;BME280;55481;48.764;8.936;2023-02-13T05:54:56;98880;;;-2.2;78.5
68489;BME280;55481;48.764;8.936;2023-02-13T05:57:27;98880;;;-2.2;78
68489;BME280;55481;48.764;8.936;2023-02-13T06:02:28;98880;;;-2.3;78.5
68489;BME280;55481;48.764;8.936;2023-02-13T06:05:12;98880;;;-2.5;79
68489;BME280;55481;48.764;8.936;2023-02-13T06:07:42;98880;;;-2.5;79
68489;BME280;55481;48.764;8.936;2023-02-13T06:10:07;98880;;;-2.6;79
68489;BME280;55481;48.764;8.936;2023-02-13T06:12:37;98880;;;-2.5;79
68489;BME280;55481;48.764;8.936;2023-02-13T06:15:09;98880;;;-2.4;78.5
68489;BME280;55481;48.764;8.936;2023-02-13T06:17:39;98880;;;-2.4;78.5
68489;BME280;55481;48.764;8.936;2023-02-13T06:20:16;98880;;;-2.4;78.5
68489;BME280;55481;48.764;8.936;2023-02-13T06:22:47;98880;;;-2.5;78.5
68489;BME280;55481;48.764;8.936;2023-02-13T06:27:40;98880;;;-2.5;79
68489;BME280;55481;48.764;8.936;2023-02-13T06:30:12;98880;;;-2.5;79
68489;BME280;55481;48.764;8.936;2023-02-13T06:32:42;98880;;;-2.3;78.5
68489;BME280;55481;48.764;8.936;2023-02-13T06:35:14;98880;;;-2.3;78.5
68489;BME280;55481;48.764;8.936;2023-02-13T06:37:44;98870;;;-2.3;78.5
68489;BME280;55481;48.764;8.936;2023-02-13T06:42:40;98880;;;-2.2;78.5
68489;BME280;55481;48.764;8.936;2023-02-13T06:50:13;98880;;;-2.1;78.5
68489;BME280;55481;48.764;8.936;2023-02-13T06:52:46;98870;;;-2.1;78.5
68489;BME280;55481;48.764;8.936;2023-02-13T06:55:13;98880;;;-2.1;78.5
68489;BME280;55481;48.764;8.936;2023-02-13T06:57:44;98870;;;-2.1;78.5
68489;BME280;55481;48.764;8.936;2023-02-13T07:00:16;98880;;;-2;78.5
68489;BME280;55481;48.764;8.936;2023-02-13T07:02:45;98880;;;-2;78
68489;BME280;55481;48.764;8.936;2023-02-13T07:05:23;98880;;;-2;78
68489;BME280;55481;48.764;8.936;2023-02-13T07:07:54;98890;;;-1.9;78.5
68489;BME280;55481;48.764;8.936;2023-02-13T07:10:25;98890;;;-1.9;78
68489;BME280;55481;48.764;8.936;2023-02-13T07:12:49;98890;;;-1.9;78
68489;BME280;55481;48.764;8.936;2023-02-13T07:15:31;98890;;;-1.8;78
68489;BME280;55481;48.764;8.936;2023-02-13T07:17:54;98890;;;-1.8;78
68489;BME280;55481;48.764;8.936;2023-02-13T07:20:33;98890;;;-1.7;78
68489;BME280;55481;48.764;8.936;2023-02-13T07:22:52;98890;;;-1.7;78
68489;BME280;55481;48.764;8.936;2023-02-13T07:25:23;98890;;;-1.6;78
68489;BME280;55481;48.764;8.936;2023-02-13T07:27:53;98900;;;-1.5;78
68489;BME280;55481;48.764;8.936;2023-02-13T07:30:25;98900;;;-1.4;78
68489;BME280;55481;48.764;8.936;2023-02-13T07:37:56;98900;;;-1.1;77.5
68489;BME280;55481;48.764;8.936;2023-02-13T07:43:06;98900;;;-0.9;77.5
68489;BME280;55481;48.764;8.936;2023-02-13T07:45:35;98900;;;-0.8;77.5
68489;BME280;55481;48.764;8.936;2023-02-13T07:48:05;98900;;;-0.7;77
68489;BME280;55481;48.764;8.936;2023-02-13T07:50:37;98900;;;-0.5;77
68489;BME280;55481;48.764;8.936;2023-02-13T07:55:41;98900;;;-0.4;77
68489;BME280;55481;48.764;8.936;2023-02-13T08:03:04;98890;;;0;76.5
68489;BME280;55481;48.764;8.936;2023-02-13T08:05:35;98890;;;0;76.5
68489;BME280;55481;48.764;8.936;2023-02-13T08:08:06;98890;;;0.2;76.5
68489;BME280;55481;48.764;8.936;2023-02-13T08:10:36;98890;;;0.3;76.5
68489;BME280;55481;48.764;8.936;2023-02-13T08:15:37;98880;;;0.6;76
68489;BME280;55481;48.764;8.936;2023-02-13T08:18:15;98880;;;0.7;76
68489;BME280;55481;48.764;8.936;2023-02-13T08:20:46;98880;;;0.9;76
68489;BME280;55481;48.764;8.936;2023-02-13T08:23:17;98880;;;1;76
68489;BME280;55481;48.764;8.936;2023-02-13T08:25:48;98880;;;1.2;75.5
68489;BME280;55481;48.764;8.936;2023-02-13T08:28:28;98880;;;1.4;75.5
68489;BME280;55481;48.764;8.936;2023-02-13T08:35:58;98880;;;1.6;75.5
68489;BME280;55481;48.764;8.936;2023-02-13T08:38:28;98880;;;1.7;76
68489;BME280;55481;48.764;8.936;2023-02-13T08:43:22;98880;;;2;75.5
68489;BME280;55481;48.764;8.936;2023-02-13T08:45:52;98870;;;2;76
68489;BME280;55481;48.764;8.936;2023-02-13T08:48:23;98870;;;2.2;75.5
68489;BME280;55481;48.764;8.936;2023-02-13T08:50:57;98870;;;2.2;75.5
68489;BME280;55481;48.764;8.936;2023-02-13T08:56:02;98860;;;2.3;76
68489;BME280;55481;48.764;8.936;2023-02-13T09:01:15;98860;;;2.6;75.5
68489;BME280;55481;48.764;8.936;2023-02-13T09:03:32;98870;;;2.7;75.5
68489;BME280;55481;48.764;8.936;2023-02-13T09:06:02;98860;;;2.7;76
68489;BME280;55481;48.764;8.936;2023-02-13T09:08:34;98860;;;2.9;75.5
68489;BME280;55481;48.764;8.936;2023-02-13T09:15:58;98860;;;3.2;75.5
68489;BME280;55481;48.764;8.936;2023-02-13T09:18:28;98870;;;3.3;75.5
68489;BME280;55481;48.764;8.936;2023-02-13T09:21:00;98860;;;3.4;75.5
68489;BME280;55481;48.764;8.936;2023-02-13T09:28:44;98860;;;3.5;75.5
68489;BME280;55481;48.764;8.936;2023-02-13T09:31:20;98860;;;3.6;75.5
68489;BME280;55481;48.764;8.936;2023-02-13T09:33:40;98860;;;3.7;75.5
68489;BME280;55481;48.764;8.936;2023-02-13T09:36:03;98860;;;3.6;75.5
68489;BME280;55481;48.764;8.936;2023-02-13T09:38:33;98870;;;3.8;75.5
68489;BME280;55481;48.764;8.936;2023-02-13T09:41:36;98870;;;3.9;75
68489;BME280;55481;48.764;8.936;2023-02-13T09:43:36;98870;;;3.9;75.5
68489;BME280;55481;48.764;8.936;2023-02-13T09:46:09;98870;;;3.7;75.5
68489;BME280;55481;48.764;8.936;2023-02-13T09:48:37;98870;;;3.7;76
68489;BME280;55481;48.764;8.936;2023-02-13T09:51:15;98870;;;3.9;75.5
68489;BME280;55481;48.764;8.936;2023-02-13T09:53:47;98870;;;4;75.5
68489;BME280;55481;48.764;8.936;2023-02-13T10:03:47;98880;;;3.6;76
68489;BME280;55481;48.764;8.936;2023-02-13T10:06:23;98880;;;3.5;77
68489;BME280;55481;48.764;8.936;2023-02-13T10:09:05;98880;;;3.5;77
68489;BME280;55481;48.764;8.936;2023-02-13T10:11:22;98880;;;3.6;76.5
68489;BME280;55481;48.764;8.936;2023-02-13T10:16:18;98890;;;3.5;77
68489;BME280;55481;48.764;8.936;2023-02-13T10:18:49;98890;;;3.8;76.5
68489;BME280;55481;48.764;8.936;2023-02-13T10:21:26;98880;;;4;76
68489;BME280;55481;48.764;8.936;2023-02-13T10:23:58;98880;;;3.9;76
68489;BME280;55481;48.764;8.936;2023-02-13T10:51:35;98860;;;5.8;73.5
68489;BME280;55481;48.764;8.936;2023-02-13T10:59:36;98860;;;5.6;75
68489;BME280;55481;48.764;8.936;2023-02-13T11:06:25;98840;;;5.9;73.5
68489;BME280;55481;48.764;8.936;2023-02-13T11:08:55;98840;;;6;74
68489;BME280;55481;48.764;8.936;2023-02-13T11:11:26;98830;;;6.3;74
68489;BME280;55481;48.764;8.936;2023-02-13T11:14:27;98830;;;6.6;73.5
68489;BME280;55481;48.764;8.936;2023-02-13T11:16:27;98830;;;6.6;73
68489;BME280;55481;48.764;8.936;2023-02-13T11:18:57;98830;;;6.5;73
68489;BME280;55481;48.764;8.936;2023-02-13T11:21:35;98830;;;6.1;74
68489;BME280;55481;48.764;8.936;2023-02-13T11:23:59;98820;;;6.4;74
68489;BME280;55481;48.764;8.936;2023-02-13T11:36:41;98810;;;7;73.5
68489;BME280;55481;48.764;8.936;2023-02-13T11:39:20;98810;;;6.9;73.5
68489;BME280;55481;48.764;8.936;2023-02-13T11:41:51;98810;;;6.7;74
68489;BME280;55481;48.764;8.936;2023-02-13T11:46:47;98810;;;7.2;73.5
68489;BME280;55481;48.764;8.936;2023-02-13T11:54:02;98810;;;7.4;73.5
68489;BME280;55481;48.764;8.936;2023-02-13T11:56:49;98810;;;7.4;73
68489;BME280;55481;48.764;8.936;2023-02-13T11:59:04;98800;;;7.4;73.5
68489;BME280;55481;48.764;8.936;2023-02-13T12:07:02;98800;;;7.5;74
68489;BME280;55481;48.764;8.936;2023-02-13T12:09:17;98800;;;7.5;73.5
68489;BME280;55481;48.764;8.936;2023-02-13T12:11:47;98800;;;7.5;74
68489;BME280;55481;48.764;8.936;2023-02-13T12:19:10;98800;;;7.5;73.5
68489;BME280;55481;48.764;8.936;2023-02-13T12:21:51;98800;;;7.7;74
68489;BME280;55481;48.764;8.936;2023-02-13T12:24:14;98790;;;7.7;74
68489;BME280;55481;48.764;8.936;2023-02-13T12:26:39;98790;;;7.6;74
68489;BME280;55481;48.764;8.936;2023-02-13T12:29:18;98790;;;7.5;74
68489;BME280;55481;48.764;8.936;2023-02-13T12:31:45;98790;;;7.6;74
68489;BME280;55481;48.764;8.936;2023-02-13T12:34:15;98790;;;7.6;74
68489;BME280;55481;48.764;8.936;2023-02-13T12:36:44;98790;;;7.8;74
68489;BME280;55481;48.764;8.936;2023-02-13T12:47:04;98770;;;8.2;73
68489;BME280;55481;48.764;8.936;2023-02-13T12:51:57;98770;;;8.4;73
68489;BME280;55481;48.764;8.936;2023-02-13T12:54:27;98760;;;8.4;73
68489;BME280;55481;48.764;8.936;2023-02-13T12:56:58;98760;;;8.2;73.5
68489;BME280;55481;48.764;8.936;2023-02-13T12:59:43;98760;;;8.4;73.5
68489;BME280;55481;48.764;8.936;2023-02-13T13:09:28;98760;;;8.6;73.5
68489;BME280;55481;48.764;8.936;2023-02-13T13:14:39;98750;;;8.7;73
68489;BME280;55481;48.764;8.936;2023-02-13T13:17:10;98760;;;8.6;73.5
68489;BME280;55481;48.764;8.936;2023-02-13T13:19:43;98750;;;8.6;73.5
68489;BME280;55481;48.764;8.936;2023-02-13T13:29:40;98750;;;8.8;73.5
68489;BME280;55481;48.764;8.936;2023-02-13T13:34:40;98750;;;8.9;73
68489;BME280;55481;48.764;8.936;2023-02-13T13:37:25;98750;;;8.9;73
68489;BME280;55481;48.764;8.936;2023-02-13T13:39:42;98750;;;8.8;73.5
68489;BME280;55481;48.764;8.936;2023-02-13T13:42:04;98740;;;8.8;73
68489;BME280;55481;48.764;8.936;2023-02-13T13:45:03;98740;;;8.9;73
68489;BME280;55481;48.764;8.936;2023-02-13T13:47:19;98740;;;8.8;73
68489;BME280;55481;48.764;8.936;2023-02-13T13:51:49;98740;;;9;73
68489;BME280;55481;48.764;8.936;2023-02-13T13:54:21;98740;;;9.1;72.5
68489;BME280;55481;48.764;8.936;2023-02-13T13:57:04;98740;;;9.2;72.5
